This is the latest recevied weather packets stored in our database for station/object DC1NF-7. If no packets are shown the sender has not sent any weather packets the latest 10 day(s).
| Time | Temp. | Humidity | Pressure | Rain* | Wind** | Luminosity | Snow |
|---|---|---|---|---|---|---|---|
| 1778083537 | 16.11° C | 70% | 1005.5 hPa | 0 mm | - | 141 W/m² | - |
| 1778082939 | 16.67° C | 66% | 1005.7 hPa | 0 mm | - | 109 W/m² | - |
| 1778082331 | 16.67° C | 65% | 1005.8 hPa | 0 mm | - | 185 W/m² | - |
| 1778081729 | 17.22° C | 66% | 1005.8 hPa | 0 mm | - | 211 W/m² | - |
| 1778081125 | 17.78° C | 67% | 1005.7 hPa | 0 mm | - | 187 W/m² | - |
| 1778080521 | 18.33° C | 62% | 1005.4 hPa | 0 mm | - | 147 W/m² | - |
| 1778079975 | 18.33° C | 60% | 1005.4 hPa | 0 mm | - | 131 W/m² | - |
| 1778079372 | 18.33° C | 58% | 1005.6 hPa | 0 mm | - | 89 W/m² | - |
| 1778078769 | 18.89° C | 58% | 1005.4 hPa | 0 mm | - | 128 W/m² | - |
| 1778078168 | 18.89° C | 57% | 1005.3 hPa | 0 mm | - | 160 W/m² | - |
| 1778077563 | 18.89° C | 57% | 1005.5 hPa | 0 mm | - | 144 W/m² | - |
| 1778076959 | 19.44° C | 56% | 1005.4 hPa | 0 mm | - | 229 W/m² | - |
| 1778076352 | 18.89° C | 58% | 1005.6 hPa | 0 mm | - | 333 W/m² | - |
| 1778075750 | 18.33° C | 58% | 1005.5 hPa | 0 mm | - | 252 W/m² | - |
| 1778075143 | 18.33° C | 60% | 1005.5 hPa | 0 mm | - | 269 W/m² | - |
| 1778074539 | 18.89° C | 58% | 1005.7 hPa | 0 mm | - | 239 W/m² | - |
| 1778073944 | 18.89° C | 57% | 1005.8 hPa | 0 mm | - | 262 W/m² | - |
| 1778073337 | 18.89° C | 58% | 1005.7 hPa | 0 mm | - | 333 W/m² | - |
| 1778072729 | 18.89° C | 57% | 1005.7 hPa | 0 mm | - | 282 W/m² | - |
| 1778072125 | 18.89° C | 56% | 1005.9 hPa | 0 mm | - | 318 W/m² | - |
| 1778071520 | 18.89° C | 57% | 1005.9 hPa | 0 mm | - | 317 W/m² | - |
| 1778070917 | 19.44° C | 56% | 1005.9 hPa | 0 mm | - | 602 W/m² | - |
| 1778070374 | 19.44° C | 56% | 1006 hPa | 0 mm | - | 462 W/m² | - |
| 1778069775 | 20° C | 56% | 1006 hPa | 0 mm | - | 529 W/m² | - |
| 1778069171 | 18.89° C | 59% | 1006.1 hPa | 0 mm | - | 759 W/m² | - |
* Rain latest hour (hover to see other rain measurements)
** Current wind speed in m/s (hover to see current wind gust speed)